sensor_id;sensor_type;location;lat;lon;timestamp;pressure;altitude;pressure_sealevel;temperature;humidity
53689;BME280;39583;54.682;30.662;2023-02-24T07:46:41;98313.47;;;-0.63;88.19
53689;BME280;39583;54.682;30.662;2023-02-24T07:49:12;98310.22;;;-0.50;87.39
53689;BME280;39583;54.682;30.662;2023-02-24T07:51:38;98264.34;;;-0.80;86.38
53689;BME280;39583;54.682;30.662;2023-02-24T07:54:04;98294.22;;;-0.57;85.34
53689;BME280;39583;54.682;30.662;2023-02-24T07:56:33;98302.94;;;-0.48;84.96
53689;BME280;39583;54.682;30.662;2023-02-24T10:07:44;98130.22;;;0.32;90.32
53689;BME280;39583;54.682;30.662;2023-02-24T10:10:19;98124.00;;;0.39;89.82
53689;BME280;39583;54.682;30.662;2023-02-24T10:13:10;98120.59;;;0.45;88.96
53689;BME280;39583;54.682;30.662;2023-02-24T10:15:42;98113.47;;;0.46;88.74
53689;BME280;39583;54.682;30.662;2023-02-24T10:24:19;98102.19;;;0.58;88.41
53689;BME280;39583;54.682;30.662;2023-02-24T10:26:52;98097.50;;;0.61;88.71
53689;BME280;39583;54.682;30.662;2023-02-24T10:29:34;98100.44;;;0.66;89.15
53689;BME280;39583;54.682;30.662;2023-02-24T10:32:21;98087.53;;;0.63;88.47
53689;BME280;39583;54.682;30.662;2023-02-24T10:34:53;98086.09;;;0.60;88.68
53689;BME280;39583;54.682;30.662;2023-02-24T10:37:22;98087.41;;;0.71;89.51
53689;BME280;39583;54.682;30.662;2023-02-24T10:39:49;98067.47;;;0.75;89.57
53689;BME280;39583;54.682;30.662;2023-02-24T10:44:50;98066.34;;;0.84;89.01
53689;BME280;39583;54.682;30.662;2023-02-24T10:47:24;98069.47;;;0.94;89.14
53689;BME280;39583;54.682;30.662;2023-02-24T10:49:58;98062.38;;;1.01;88.98
53689;BME280;39583;54.682;30.662;2023-02-24T10:52:27;98054.44;;;1.01;88.55
53689;BME280;39583;54.682;30.662;2023-02-24T10:55:22;98055.97;;;0.89;88.15
53689;BME280;39583;54.682;30.662;2023-02-24T11:01:12;98050.44;;;1.12;88.70
53689;BME280;39583;54.682;30.662;2023-02-24T11:03:49;98047.38;;;1.15;88.20
53689;BME280;39583;54.682;30.662;2023-02-24T11:06:48;98040.22;;;1.09;88.09
53689;BME280;39583;54.682;30.662;2023-02-24T11:09:20;98044.09;;;1.13;88.37
53689;BME280;39583;54.682;30.662;2023-02-24T11:14:59;98032.63;;;1.34;88.72
53689;BME280;39583;54.682;30.662;2023-02-24T11:17:48;98022.22;;;1.39;88.68
53689;BME280;39583;54.682;30.662;2023-02-24T11:20:46;97983.13;;;1.06;87.78
53689;BME280;39583;54.682;30.662;2023-02-24T11:26:15;98022.91;;;1.47;87.99
53689;BME280;39583;54.682;30.662;2023-02-24T11:34:46;98009.38;;;1.36;88.11
53689;BME280;39583;54.682;30.662;2023-02-24T11:40:06;98009.84;;;1.46;88.18
53689;BME280;39583;54.682;30.662;2023-02-24T11:42:47;97967.97;;;1.35;88.50
53689;BME280;39583;54.682;30.662;2023-02-24T11:47:59;97998.88;;;1.69;87.42
53689;BME280;39583;54.682;30.662;2023-02-24T11:53:03;97982.75;;;1.64;87.75
53689;BME280;39583;54.682;30.662;2023-02-24T11:55:45;97967.19;;;1.47;87.37
53689;BME280;39583;54.682;30.662;2023-02-24T11:58:19;97978.81;;;1.46;87.72
53689;BME280;39583;54.682;30.662;2023-02-24T12:00:55;97956.69;;;1.26;87.62
53689;BME280;39583;54.682;30.662;2023-02-24T12:03:49;97967.97;;;1.35;87.92
53689;BME280;39583;54.682;30.662;2023-02-24T12:06:33;97914.56;;;1.03;87.68
53689;BME280;39583;54.682;30.662;2023-02-24T12:09:09;97931.75;;;1.07;87.73
53689;BME280;39583;54.682;30.662;2023-02-24T12:11:59;97963.06;;;1.32;88.00
53689;BME280;39583;54.682;30.662;2023-02-24T12:14:35;97963.00;;;1.25;87.91
53689;BME280;39583;54.682;30.662;2023-02-24T12:17:34;97956.50;;;1.28;87.86
53689;BME280;39583;54.682;30.662;2023-02-24T12:20:05;97947.72;;;1.27;87.81
53689;BME280;39583;54.682;30.662;2023-02-24T12:23:11;97947.16;;;1.38;88.53
53689;BME280;39583;54.682;30.662;2023-02-24T12:33:39;97929.66;;;1.51;88.20
53689;BME280;39583;54.682;30.662;2023-02-24T12:39:21;97871.34;;;0.96;87.53
53689;BME280;39583;54.682;30.662;2023-02-24T12:44:43;97921.41;;;1.19;87.54
53689;BME280;39583;54.682;30.662;2023-02-24T12:47:14;97914.25;;;1.20;87.63
53689;BME280;39583;54.682;30.662;2023-02-24T12:52:35;97912.63;;;1.18;87.49
53689;BME280;39583;54.682;30.662;2023-02-24T12:55:37;97908.50;;;1.16;87.77
53689;BME280;39583;54.682;30.662;2023-02-24T12:58:31;97898.94;;;1.15;87.42
53689;BME280;39583;54.682;30.662;2023-02-24T13:06:13;97893.47;;;1.23;88.07
53689;BME280;39583;54.682;30.662;2023-02-24T13:11:31;97885.09;;;1.20;87.46
53689;BME280;39583;54.682;30.662;2023-02-24T13:14:22;97888.94;;;1.17;87.74
53689;BME280;39583;54.682;30.662;2023-02-24T13:16:49;97890.78;;;1.16;87.59
53689;BME280;39583;54.682;30.662;2023-02-24T13:19:36;97883.03;;;1.15;87.82
53689;BME280;39583;54.682;30.662;2023-02-24T13:24:43;97875.06;;;1.15;88.07
53689;BME280;39583;54.682;30.662;2023-02-24T13:29:54;97875.47;;;1.12;88.08
53689;BME280;39583;54.682;30.662;2023-02-24T13:35:02;97877.72;;;1.08;87.93
53689;BME280;39583;54.682;30.662;2023-02-24T13:37:34;97868.53;;;1.11;88.22
53689;BME280;39583;54.682;30.662;2023-02-24T13:43:00;97863.63;;;1.08;88.33
53689;BME280;39583;54.682;30.662;2023-02-24T13:45:36;97852.84;;;1.09;88.29
53689;BME280;39583;54.682;30.662;2023-02-24T13:51:42;97847.94;;;1.06;88.45
53689;BME280;39583;54.682;30.662;2023-02-24T14:02:15;97851.78;;;1.04;88.85
53689;BME280;39583;54.682;30.662;2023-02-24T14:04:47;97839.38;;;1.04;88.89
53689;BME280;39583;54.682;30.662;2023-02-24T14:07:20;97837.94;;;1.08;88.88
53689;BME280;39583;54.682;30.662;2023-02-24T14:09:51;97837.34;;;1.06;88.83
53689;BME280;39583;54.682;30.662;2023-02-24T14:12:23;97835.72;;;1.05;89.00
53689;BME280;39583;54.682;30.662;2023-02-24T14:14:50;97833.22;;;1.04;89.06
53689;BME280;39583;54.682;30.662;2023-02-24T14:17:26;97836.72;;;1.04;89.23
53689;BME280;39583;54.682;30.662;2023-02-24T14:20:19;97831.44;;;1.04;89.04
53689;BME280;39583;54.682;30.662;2023-02-24T14:22:51;97829.34;;;1.00;88.81
53689;BME280;39583;54.682;30.662;2023-02-24T14:25:18;97830.78;;;0.96;88.74
53689;BME280;39583;54.682;30.662;2023-02-24T14:27:48;97818.09;;;0.91;88.93
53689;BME280;39583;54.682;30.662;2023-02-24T14:32:47;97820.75;;;0.84;89.04
53689;BME280;39583;54.682;30.662;2023-02-24T14:35:46;97817.06;;;0.79;89.60
53689;BME280;39583;54.682;30.662;2023-02-24T14:38:45;97805.19;;;0.75;89.73
53689;BME280;39583;54.682;30.662;2023-02-24T14:41:23;97803.97;;;0.71;89.75
53689;BME280;39583;54.682;30.662;2023-02-24T14:43:50;97801.72;;;0.68;90.10
53689;BME280;39583;54.682;30.662;2023-02-24T14:46:17;97796.44;;;0.68;89.88
53689;BME280;39583;54.682;30.662;2023-02-24T14:48:44;97799.44;;;0.65;90.03
53689;BME280;39583;54.682;30.662;2023-02-24T14:51:18;97800.28;;;0.65;90.07
53689;BME280;39583;54.682;30.662;2023-02-24T14:54:06;97798.84;;;0.63;89.94
53689;BME280;39583;54.682;30.662;2023-02-24T14:56:34;97794.56;;;0.62;90.45
53689;BME280;39583;54.682;30.662;2023-02-24T14:59:08;97791.69;;;0.63;90.45
53689;BME280;39583;54.682;30.662;2023-02-24T15:01:48;97793.53;;;0.63;90.28
53689;BME280;39583;54.682;30.662;2023-02-24T15:04:33;97788.25;;;0.63;90.77
53689;BME280;39583;54.682;30.662;2023-02-24T15:07:11;97792.50;;;0.64;90.71
53689;BME280;39583;54.682;30.662;2023-02-24T15:09:43;97786.19;;;0.65;90.90
53689;BME280;39583;54.682;30.662;2023-02-24T15:14:50;97786.66;;;0.68;91.23
53689;BME280;39583;54.682;30.662;2023-02-24T15:17:17;97786.84;;;0.67;90.92
53689;BME280;39583;54.682;30.662;2023-02-24T15:19:45;97779.91;;;0.66;91.31
53689;BME280;39583;54.682;30.662;2023-02-24T15:22:31;97775.22;;;0.68;90.97
53689;BME280;39583;54.682;30.662;2023-02-24T15:27:35;97777.28;;;0.72;91.40
53689;BME280;39583;54.682;30.662;2023-02-24T15:33:01;97777.50;;;0.77;91.62
53689;BME280;39583;54.682;30.662;2023-02-24T15:35:29;97754.03;;;0.68;91.45
53689;BME280;39583;54.682;30.662;2023-02-24T15:37:55;97772.44;;;0.82;91.92
53689;BME280;39583;54.682;30.662;2023-02-24T15:40:24;97765.91;;;0.85;91.53
53689;BME280;39583;54.682;30.662;2023-02-24T15:42:54;97761.84;;;0.89;91.52
53689;BME280;39583;54.682;30.662;2023-02-24T15:47:54;97766.34;;;0.95;91.41
53689;BME280;39583;54.682;30.662;2023-02-24T15:50:21;97759.22;;;0.96;91.40
53689;BME280;39583;54.682;30.662;2023-02-24T15:52:48;97764.31;;;0.97;91.70
53689;BME280;39583;54.682;30.662;2023-02-24T15:55:18;97758.81;;;0.99;91.81
53689;BME280;39583;54.682;30.662;2023-02-24T15:57:45;97748.00;;;1.00;91.58
53689;BME280;39583;54.682;30.662;2023-02-24T16:00:14;97722.50;;;0.86;91.59
53689;BME280;39583;54.682;30.662;2023-02-24T16:02:42;97744.78;;;1.05;91.70
53689;BME280;39583;54.682;30.662;2023-02-24T16:05:11;97737.63;;;1.05;92.01
53689;BME280;39583;54.682;30.662;2023-02-24T16:07:39;97741.31;;;1.04;91.69
53689;BME280;39583;54.682;30.662;2023-02-24T16:10:06;97728.44;;;1.01;91.67
53689;BME280;39583;54.682;30.662;2023-02-24T16:12:36;97730.09;;;1.09;91.63
53689;BME280;39583;54.682;30.662;2023-02-24T16:15:16;97733.56;;;1.09;91.76
53689;BME280;39583;54.682;30.662;2023-02-24T16:17:44;97730.91;;;1.09;91.80
53689;BME280;39583;54.682;30.662;2023-02-24T16:20:37;97727.44;;;1.09;91.94
53689;BME280;39583;54.682;30.662;2023-02-24T16:23:04;97732.75;;;1.09;92.01
53689;BME280;39583;54.682;30.662;2023-02-24T16:25:38;97720.91;;;1.11;91.78
53689;BME280;39583;54.682;30.662;2023-02-24T16:28:05;97724.38;;;1.12;92.02
53689;BME280;39583;54.682;30.662;2023-02-24T16:30:31;97717.44;;;1.11;91.78
53689;BME280;39583;54.682;30.662;2023-02-24T16:32:59;97705.59;;;1.00;92.00
53689;BME280;39583;54.682;30.662;2023-02-24T16:35:26;97722.34;;;1.14;91.96
53689;BME280;39583;54.682;30.662;2023-02-24T16:37:53;97723.75;;;1.16;92.00
53689;BME280;39583;54.682;30.662;2023-02-24T16:40:30;97715.63;;;1.18;92.13
53689;BME280;39583;54.682;30.662;2023-02-24T16:43:01;97711.31;;;1.17;92.13
53689;BME280;39583;54.682;30.662;2023-02-24T16:45:29;97711.16;;;1.18;92.29
53689;BME280;39583;54.682;30.662;2023-02-24T16:47:58;97718.09;;;1.20;91.91
53689;BME280;39583;54.682;30.662;2023-02-24T16:50:37;97722.16;;;1.22;92.44
53689;BME280;39583;54.682;30.662;2023-02-24T16:53:06;97711.34;;;1.24;92.42
53689;BME280;39583;54.682;30.662;2023-02-24T16:55:33;97706.25;;;1.22;92.41
53689;BME280;39583;54.682;30.662;2023-02-24T16:57:59;97712.16;;;1.24;92.11
53689;BME280;39583;54.682;30.662;2023-02-24T17:00:25;97702.16;;;1.26;92.23
53689;BME280;39583;54.682;30.662;2023-02-24T17:02:52;97701.97;;;1.28;92.65
53689;BME280;39583;54.682;30.662;2023-02-24T17:05:26;97702.56;;;1.30;92.30
53689;BME280;39583;54.682;30.662;2023-02-24T17:07:54;97686.66;;;1.30;92.36
53689;BME280;39583;54.682;30.662;2023-02-24T17:10:22;97690.97;;;1.31;92.63
53689;BME280;39583;54.682;30.662;2023-02-24T17:12:50;97688.31;;;1.31;92.44
53689;BME280;39583;54.682;30.662;2023-02-24T17:15:20;97687.28;;;1.32;92.49
53689;BME280;39583;54.682;30.662;2023-02-24T17:17:47;97686.06;;;1.34;92.64
53689;BME280;39583;54.682;30.662;2023-02-24T17:20:17;97683.63;;;1.33;92.62
53689;BME280;39583;54.682;30.662;2023-02-24T17:22:45;97681.78;;;1.33;92.93
53689;BME280;39583;54.682;30.662;2023-02-24T17:25:21;97677.69;;;1.37;92.56
53689;BME280;39583;54.682;30.662;2023-02-24T17:27:49;97687.47;;;1.37;92.78
53689;BME280;39583;54.682;30.662;2023-02-24T17:30:19;97675.03;;;1.37;92.90
53689;BME280;39583;54.682;30.662;2023-02-24T17:32:47;97675.84;;;1.38;92.84
53689;BME280;39583;54.682;30.662;2023-02-24T17:35:13;97668.72;;;1.38;92.95
53689;BME280;39583;54.682;30.662;2023-02-24T17:37:39;97670.34;;;1.39;92.92
53689;BME280;39583;54.682;30.662;2023-02-24T17:40:06;97674.41;;;1.42;92.66
53689;BME280;39583;54.682;30.662;2023-02-24T17:42:34;97669.13;;;1.42;93.14
53689;BME280;39583;54.682;30.662;2023-02-24T17:45:00;97667.09;;;1.44;92.99
53689;BME280;39583;54.682;30.662;2023-02-24T17:47:26;97667.91;;;1.44;93.09
53689;BME280;39583;54.682;30.662;2023-02-24T17:49:53;97658.31;;;1.43;93.05
53689;BME280;39583;54.682;30.662;2023-02-24T17:52:20;97658.31;;;1.43;93.13
53689;BME280;39583;54.682;30.662;2023-02-24T17:54:47;97661.97;;;1.42;93.05
53689;BME280;39583;54.682;30.662;2023-02-24T17:57:13;97650.97;;;1.39;93.09
53689;BME280;39583;54.682;30.662;2023-02-24T17:59:44;97644.25;;;1.36;93.27
53689;BME280;39583;54.682;30.662;2023-02-24T18:02:13;97646.88;;;1.43;93.60
53689;BME280;39583;54.682;30.662;2023-02-24T18:04:40;97650.38;;;1.43;93.41
53689;BME280;39583;54.682;30.662;2023-02-24T18:07:08;97658.13;;;1.45;93.66
53689;BME280;39583;54.682;30.662;2023-02-24T18:09:36;97628.75;;;1.33;93.69
53689;BME280;39583;54.682;30.662;2023-02-24T18:12:03;97650.34;;;1.50;93.74
53689;BME280;39583;54.682;30.662;2023-02-24T18:14:30;97637.91;;;1.44;93.44
53689;BME280;39583;54.682;30.662;2023-02-24T18:16:56;97644.63;;;1.53;93.37
53689;BME280;39583;54.682;30.662;2023-02-24T18:19:24;97645.44;;;1.54;93.72
53689;BME280;39583;54.682;30.662;2023-02-24T18:21:51;97648.91;;;1.54;93.65
53689;BME280;39583;54.682;30.662;2023-02-24T18:24:19;97643.38;;;1.56;93.51
53689;BME280;39583;54.682;30.662;2023-02-24T18:26:49;97643.22;;;1.57;93.48
53689;BME280;39583;54.682;30.662;2023-02-24T18:29:15;97644.03;;;1.58;93.83
53689;BME280;39583;54.682;30.662;2023-02-24T18:31:41;97641.16;;;1.59;93.43
53689;BME280;39583;54.682;30.662;2023-02-24T18:34:07;97609.34;;;1.46;93.49
53689;BME280;39583;54.682;30.662;2023-02-24T18:36:34;97646.03;;;1.62;93.44
53689;BME280;39583;54.682;30.662;2023-02-24T18:39:00;97633.59;;;1.63;93.47
53689;BME280;39583;54.682;30.662;2023-02-24T18:41:26;97638.91;;;1.63;93.54
53689;BME280;39583;54.682;30.662;2023-02-24T18:43:55;97638.91;;;1.63;93.43
53689;BME280;39583;54.682;30.662;2023-02-24T18:46:23;97631.53;;;1.65;93.88
53689;BME280;39583;54.682;30.662;2023-02-24T18:48:50;97625.63;;;1.63;93.37
53689;BME280;39583;54.682;30.662;2023-02-24T18:51:19;97630.94;;;1.63;93.53
53689;BME280;39583;54.682;30.662;2023-02-24T18:53:45;97630.72;;;1.64;93.54
53689;BME280;39583;54.682;30.662;2023-02-24T18:56:15;97630.50;;;1.66;93.93
53689;BME280;39583;54.682;30.662;2023-02-24T18:58:45;97619.47;;;1.69;93.85
53689;BME280;39583;54.682;30.662;2023-02-24T19:01:14;97587.91;;;1.54;93.69
53689;BME280;39583;54.682;30.662;2023-02-24T19:03:42;97623.16;;;1.68;93.92
53689;BME280;39583;54.682;30.662;2023-02-24T19:06:10;97620.31;;;1.69;93.93
53689;BME280;39583;54.682;30.662;2023-02-24T19:08:39;97610.72;;;1.68;94.10
53689;BME280;39583;54.682;30.662;2023-02-24T19:11:13;97611.34;;;1.70;93.89
53689;BME280;39583;54.682;30.662;2023-02-24T19:13:45;97619.31;;;1.70;94.03
53689;BME280;39583;54.682;30.662;2023-02-24T19:16:16;97601.75;;;1.63;93.88
53689;BME280;39583;54.682;30.662;2023-02-24T19:18:43;97608.06;;;1.68;94.07
53689;BME280;39583;54.682;30.662;2023-02-24T19:21:09;97606.63;;;1.66;94.18
53689;BME280;39583;54.682;30.662;2023-02-24T19:23:36;97610.31;;;1.71;94.15
53689;BME280;39583;54.682;30.662;2023-02-24T19:26:03;97611.94;;;1.72;94.62
53689;BME280;39583;54.682;30.662;2023-02-24T19:28:29;97604.59;;;1.74;94.58
53689;BME280;39583;54.682;30.662;2023-02-24T19:30:56;97607.63;;;1.78;94.56
53689;BME280;39583;54.682;30.662;2023-02-24T19:33:23;97606.00;;;1.77;94.52
